Time;durP1;ratioP1;P1;durP2;ratioP2;P2;SDS_P1;SDS_P2;PMS_P1;PMS_P2;Temp;Humidity;BMP_temperature;BMP_pressure;BME280_temperature;BME280_humidity;BME280_pressure;Samples;Min_cycle;Max_cycle;Signal;HPM_P1;HPM_P2
2022/02/25 00:02:11;;;;;;;2.45;1.65;;;;;;;19.63;43.79;100718.72;4949737;28;20035;-42
2022/02/25 00:04:37;;;;;;;3.55;2.40;;;;;;;19.62;43.71;100714.44;4948629;28;20590;-42
2022/02/25 00:07:02;;;;;;;2.55;1.80;;;;;;;19.61;43.65;100712.81;4948567;28;20039;-46
2022/02/25 00:09:28;;;;;;;3.47;2.03;;;;;;;19.60;43.55;100711.19;4961857;28;20431;-47
2022/02/25 00:11:54;;;;;;;3.38;1.90;;;;;;;19.59;43.66;100709.56;4948100;28;20042;-42
2022/02/25 00:14:19;;;;;;;3.22;2.03;;;;;;;19.59;43.69;100707.72;4948377;29;20070;-41
2022/02/25 00:16:45;;;;;;;3.28;2.13;;;;;;;19.58;43.39;100706.09;4948693;29;20044;-42
2022/02/25 00:19:11;;;;;;;3.35;2.20;;;;;;;19.58;43.38;100713.22;4948827;28;20040;-41
2022/02/25 00:21:37;;;;;;;2.25;1.58;;;;;;;19.57;43.66;100707.13;4945742;29;20045;-44
2022/02/25 00:24:02;;;;;;;2.95;1.63;;;;;;;19.57;43.51;100706.31;4940738;29;20042;-43
2022/02/25 00:26:28;;;;;;;2.60;1.77;;;;;;;19.56;43.36;100705.47;4941526;29;20031;-43
2022/02/25 00:28:53;;;;;;;2.63;1.98;;;;;;;19.55;43.53;100709.94;4942193;29;20650;-45
2022/02/25 00:31:19;;;;;;;4.13;2.33;;;;;;;19.55;43.40;100702.03;4949121;29;20037;-42
2022/02/25 00:33:44;;;;;;;2.65;1.83;;;;;;;19.55;43.45;100702.03;4949196;29;20143;-46
2022/02/25 00:36:10;;;;;;;3.22;1.98;;;;;;;19.55;43.37;100699.38;4949674;29;20035;-44
2022/02/25 00:38:35;;;;;;;2.58;1.80;;;;;;;19.54;43.49;100700.41;4949009;29;20062;-45
2022/02/25 00:41:01;;;;;;;3.65;1.80;;;;;;;19.54;43.29;100703.03;4948846;29;20077;-42
2022/02/25 00:43:27;;;;;;;3.25;1.63;;;;;;;19.55;43.38;100706.50;4944342;29;20751;-42
2022/02/25 00:45:52;;;;;;;3.15;1.73;;;;;;;19.54;43.29;100708.31;4947710;29;20092;-43
2022/02/25 00:48:18;;;;;;;2.35;1.67;;;;;;;19.54;43.33;100708.31;4948878;29;20031;-42
2022/02/25 00:50:44;;;;;;;2.80;1.20;;;;;;;19.52;43.55;100699.78;4947745;29;20027;-43
2022/02/25 00:53:09;;;;;;;3.90;1.75;;;;;;;19.53;43.32;100711.97;4948820;29;20511;-42
2022/02/25 00:55:35;;;;;;;3.00;2.00;;;;;;;19.52;43.55;100715.63;4949851;29;20039;-44
2022/02/25 00:58:01;;;;;;;2.95;2.10;;;;;;;19.51;43.49;100719.28;4949196;29;20039;-44
2022/02/25 01:00:26;;;;;;;3.55;2.53;;;;;;;19.48;43.42;100703.78;4924814;29;20075;-43
2022/02/25 01:02:52;;;;;;;3.13;1.90;;;;;;;19.49;43.33;100707.25;4946365;29;20027;-41
2022/02/25 01:05:18;;;;;;;4.05;2.30;;;;;;;19.47;43.54;100707.44;4949141;29;20456;-44
2022/02/25 01:07:44;;;;;;;4.38;1.95;;;;;;;19.47;43.67;100699.50;4947938;29;20038;-45
2022/02/25 01:10:12;;;;;;;3.28;2.35;;;;;;;19.46;43.42;100699.72;4943610;29;20042;-42
2022/02/25 01:12:38;;;;;;;3.15;1.85;;;;;;;19.45;43.76;100696.25;4945461;28;20045;-42
2022/02/25 01:15:05;;;;;;;3.60;2.05;;;;;;;19.45;43.64;100704.19;4945696;28;20027;-42
2022/02/25 01:17:31;;;;;;;2.90;2.47;;;;;;;19.44;43.73;100699.91;4952439;28;20079;-43
2022/02/25 01:19:58;;;;;;;3.28;1.95;;;;;;;19.44;43.86;100701.72;4949007;29;20035;-41
2022/02/25 01:22:25;;;;;;;3.28;2.13;;;;;;;19.43;43.87;100706.19;4956138;28;20478;-43
2022/02/25 01:24:50;;;;;;;4.38;2.05;;;;;;;19.42;43.79;100698.47;4949703;28;20061;-44
2022/02/25 01:27:16;;;;;;;2.78;1.92;;;;;;;19.42;43.70;100701.13;4949590;29;20476;-41
2022/02/25 01:29:41;;;;;;;2.95;2.10;;;;;;;19.41;43.53;100691.56;4930529;29;20859;-41
2022/02/25 01:32:08;;;;;;;2.25;1.50;;;;;;;19.39;43.47;100694.41;4943434;28;20082;-43
2022/02/25 01:34:33;;;;;;;2.45;1.80;;;;;;;19.38;43.40;100692.75;4951785;29;20047;-42
2022/02/25 01:36:59;;;;;;;3.17;1.98;;;;;;;19.38;43.48;100699.88;4949528;28;20439;-44
2022/02/25 01:39:24;;;;;;;4.03;1.50;;;;;;;19.37;43.56;100695.63;4951011;28;20035;-43
2022/02/25 01:41:50;;;;;;;4.28;2.38;;;;;;;19.36;43.53;100694.00;4950707;28;20031;-42
2022/02/25 01:44:23;;;;;;;4.75;1.40;;;;;;;19.35;43.66;100706.41;4949971;28;20164;-46
2022/02/25 01:46:50;;;;;;;2.92;1.63;;;;;;;19.35;43.73;100703.75;4953873;28;20043;-44
2022/02/25 01:49:16;;;;;;;3.47;1.80;;;;;;;19.34;43.58;100696.03;4951922;28;20031;-45
2022/02/25 01:51:43;;;;;;;2.53;1.60;;;;;;;19.35;43.68;100693.19;4951599;28;20039;-42
2022/02/25 01:54:10;;;;;;;2.40;1.60;;;;;;;19.34;43.71;100691.56;4944965;28;20038;-44
2022/02/25 01:56:38;;;;;;;3.38;1.88;;;;;;;19.33;43.99;100697.84;4948377;28;20640;-45
2022/02/25 01:59:03;;;;;;;2.10;1.52;;;;;;;19.33;43.63;100697.03;4950789;28;20049;-44
2022/02/25 02:01:29;;;;;;;2.22;1.40;;;;;;;19.32;43.67;100698.03;4949078;28;20042;-41
2022/02/25 02:03:57;;;;;;;1.63;1.35;;;;;;;19.31;43.58;100697.22;4951305;28;20027;-46
2022/02/25 02:06:23;;;;;;;3.78;1.80;;;;;;;19.30;43.75;100697.44;4950374;28;20419;-45
2022/02/25 02:08:49;;;;;;;2.45;1.63;;;;;;;19.30;43.64;100695.59;4950313;28;20052;-42
2022/02/25 02:13:41;;;;;;;2.63;1.45;;;;;;;19.27;43.68;100693.34;4906850;23;20061;-41
2022/02/25 02:16:06;;;;;;;3.22;2.22;;;;;;;19.27;43.63;100695.97;4970426;28;20042;-41
2022/02/25 02:18:32;;;;;;;2.78;2.22;;;;;;;19.27;43.70;100689.88;4971085;28;20778;-41
2022/02/25 02:20:57;;;;;;;2.40;1.67;;;;;;;19.25;43.69;100687.44;4971051;28;20038;-43
2022/02/25 02:23:23;;;;;;;2.20;1.60;;;;;;;19.26;43.79;100685.63;4971145;28;20061;-40
2022/02/25 02:25:48;;;;;;;3.35;2.45;;;;;;;19.25;43.62;100689.25;4971122;28;20019;-40
2022/02/25 02:28:21;;;;;;;3.25;1.83;;;;;;;19.25;43.81;100697.19;4971245;28;20038;-42
2022/02/25 02:30:49;;;;;;;2.35;1.80;;;;;;;19.24;43.82;100691.09;4970642;28;20254;-42
2022/02/25 02:33:14;;;;;;;2.15;1.52;;;;;;;19.24;43.77;100691.09;4969145;28;20553;-44
2022/02/25 02:35:41;;;;;;;2.55;1.65;;;;;;;19.26;43.58;100690.91;4970829;28;20081;-41
2022/02/25 02:38:06;;;;;;;2.05;1.33;;;;;;;19.25;43.64;100687.44;4971032;28;20077;-40
2022/02/25 02:40:32;;;;;;;3.50;1.65;;;;;;;19.25;43.62;100676.88;4969976;28;20031;-40
2022/02/25 02:42:57;;;;;;;3.10;2.05;;;;;;;19.25;43.77;100684.81;4970255;28;20038;-41
2022/02/25 02:45:23;;;;;;;4.63;2.40;;;;;;;19.25;43.80;100679.50;4970193;28;20034;-40
2022/02/25 02:47:48;;;;;;;1.70;1.27;;;;;;;19.24;43.61;100672.59;4970326;28;20041;-40
2022/02/25 02:50:14;;;;;;;2.22;1.58;;;;;;;19.24;43.66;100677.88;4970239;28;20066;-42
2022/02/25 02:52:40;;;;;;;3.30;2.05;;;;;;;19.25;43.58;100682.16;4970131;28;20093;-41
2022/02/25 02:55:06;;;;;;;3.05;1.95;;;;;;;19.23;43.66;100678.91;4970472;28;20030;-43
2022/02/25 02:57:33;;;;;;;3.47;1.75;;;;;;;19.23;43.73;100685.00;4970320;28;20402;-40
2022/02/25 02:59:58;;;;;;;2.30;1.60;;;;;;;19.22;43.60;100674.63;4970104;28;20027;-41
2022/02/25 03:02:24;;;;;;;2.70;1.70;;;;;;;19.20;43.58;100679.28;4969711;28;20074;-40
2022/02/25 03:04:49;;;;;;;2.70;1.60;;;;;;;19.19;43.55;100672.38;4970221;28;20154;-44
2022/02/25 03:07:15;;;;;;;2.75;1.40;;;;;;;19.18;43.43;100662.81;4970247;28;20031;-43
2022/02/25 03:09:40;;;;;;;2.50;1.20;;;;;;;19.17;43.47;100666.47;4968433;28;20027;-40
2022/02/25 03:12:08;;;;;;;1.65;1.15;;;;;;;19.17;43.34;100669.94;4969523;28;20521;-42
2022/02/25 03:14:34;;;;;;;2.67;1.80;;;;;;;19.17;43.32;100663.81;4969739;28;20291;-42
2022/02/25 03:16:59;;;;;;;3.78;1.40;;;;;;;19.17;43.38;100669.94;4969550;28;20042;-42
2022/02/25 03:19:25;;;;;;;3.88;1.45;;;;;;;19.16;43.43;100670.94;4970064;28;20039;-39
2022/02/25 03:21:50;;;;;;;1.90;1.30;;;;;;;19.14;43.52;100672.94;4970003;28;20382;-42
2022/02/25 03:24:16;;;;;;;2.08;1.67;;;;;;;19.14;43.28;100672.13;4969449;28;20093;-42
2022/02/25 03:26:41;;;;;;;2.70;1.42;;;;;;;19.14;43.49;100670.31;4969402;28;20038;-43
2022/02/25 03:29:06;;;;;;;3.05;1.42;;;;;;;19.13;43.18;100665.22;4969402;28;20059;-44
2022/02/25 03:31:32;;;;;;;2.42;1.85;;;;;;;19.13;43.46;100665.22;4969264;28;20029;-43
2022/02/25 03:33:58;;;;;;;2.47;1.50;;;;;;;19.13;43.52;100665.22;4951926;28;20070;-41
2022/02/25 03:36:23;;;;;;;2.15;1.10;;;;;;;19.12;43.29;100672.34;4969307;28;20049;-41
2022/02/25 03:38:49;;;;;;;1.92;1.33;;;;;;;19.13;43.58;100667.88;4969542;28;20041;-42
2022/02/25 03:41:14;;;;;;;1.90;1.48;;;;;;;19.12;43.45;100667.06;4968914;28;20043;-42
2022/02/25 03:43:40;;;;;;;2.25;1.52;;;;;;;19.12;43.38;100668.88;4964512;28;20331;-43
2022/02/25 03:46:05;;;;;;;2.60;1.35;;;;;;;19.11;43.20;100662.78;4954757;28;20094;-39
2022/02/25 03:48:31;;;;;;;1.70;1.40;;;;;;;19.11;43.28;100662.78;4932478;29;20050;-43
2022/02/25 03:50:56;;;;;;;2.10;1.38;;;;;;;19.09;43.26;100661.34;4949502;29;20064;-42
2022/02/25 03:53:22;;;;;;;1.75;1.17;;;;;;;19.09;43.26;100661.34;4950251;29;20027;-43
2022/02/25 03:55:48;;;;;;;2.58;1.40;;;;;;;19.08;43.13;100662.34;4949073;28;20151;-43
2022/02/25 03:58:13;;;;;;;1.90;1.27;;;;;;;19.08;43.16;100665.00;4949562;29;20039;-44
2022/02/25 04:00:38;;;;;;;2.22;1.20;;;;;;;19.06;43.18;100662.53;4949518;29;20057;-48
2022/02/25 04:03:04;;;;;;;2.47;1.00;;;;;;;19.05;43.13;100666.19;4949946;29;20079;-41
2022/02/25 04:05:30;;;;;;;1.20;0.73;;;;;;;19.04;43.16;100663.75;4964382;28;20027;-42
2022/02/25 04:07:55;;;;;;;2.25;1.20;;;;;;;19.03;43.11;100665.56;4968818;28;20026;-44
2022/02/25 04:10:21;;;;;;;2.63;1.10;;;;;;;19.04;43.05;100671.66;4968911;28;20035;-42
2022/02/25 04:12:47;;;;;;;1.33;0.80;;;;;;;19.02;43.12;100663.94;4968594;28;20058;-45
2022/02/25 04:15:12;;;;;;;2.20;1.13;;;;;;;19.01;43.11;100670.22;4968781;28;20474;-41
2022/02/25 04:17:38;;;;;;;1.48;1.13;;;;;;;19.01;42.87;100667.59;4968447;28;20522;-46
2022/02/25 04:20:04;;;;;;;1.63;0.77;;;;;;;19.01;43.08;100674.69;4968661;28;20027;-42
2022/02/25 04:22:30;;;;;;;1.92;0.88;;;;;;;18.99;43.06;100677.53;4968622;28;20063;-41
2022/02/25 04:24:55;;;;;;;1.88;0.88;;;;;;;18.99;42.96;100676.72;4969012;28;20066;-44
2022/02/25 04:27:21;;;;;;;2.25;1.10;;;;;;;18.98;43.09;100675.91;4968367;28;20039;-46
2022/02/25 04:29:47;;;;;;;2.10;1.02;;;;;;;18.97;42.98;100681.38;4968434;28;20037;-43
2022/02/25 04:32:12;;;;;;;1.48;0.82;;;;;;;18.96;43.01;100683.19;4968367;28;20069;-49
2022/02/25 04:34:38;;;;;;;2.70;1.27;;;;;;;18.95;42.94;100686.84;4968353;28;20137;-44
2022/02/25 04:37:04;;;;;;;3.85;1.60;;;;;;;18.96;42.83;100682.38;4968082;28;20034;-43
2022/02/25 04:39:29;;;;;;;3.92;1.10;;;;;;;18.97;42.83;100686.66;4968007;28;20026;-43
2022/02/25 04:41:55;;;;;;;2.08;1.20;;;;;;;18.97;42.76;100681.38;4968192;28;20213;-44
2022/02/25 04:44:22;;;;;;;1.95;1.23;;;;;;;18.97;42.78;100673.44;4967949;28;20023;-48
2022/02/25 04:46:48;;;;;;;1.92;1.38;;;;;;;18.96;42.64;100675.28;4950414;28;20041;-42
2022/02/25 04:49:15;;;;;;;1.83;1.15;;;;;;;18.98;42.79;100685.66;4963473;28;20475;-42
2022/02/25 04:51:40;;;;;;;2.28;1.27;;;;;;;18.97;42.72;100691.94;4957039;28;20042;-41
2022/02/25 04:54:06;;;;;;;2.17;1.17;;;;;;;18.98;42.63;100683.00;4948575;29;20027;-43
2022/02/25 04:56:31;;;;;;;1.83;0.90;;;;;;;18.97;42.61;100687.47;4948689;29;20299;-42
2022/02/25 04:58:57;;;;;;;2.25;1.23;;;;;;;18.97;42.56;100682.19;4948549;28;20063;-41
2022/02/25 05:01:22;;;;;;;1.65;1.10;;;;;;;18.97;42.80;100686.66;4948047;29;20234;-41
2022/02/25 05:03:49;;;;;;;3.55;1.20;;;;;;;18.98;42.67;100690.94;4950026;28;20031;-45
2022/02/25 05:06:14;;;;;;;2.20;1.20;;;;;;;18.96;42.52;100690.31;4967178;28;20121;-43
2022/02/25 05:08:40;;;;;;;1.80;0.90;;;;;;;18.96;42.68;100690.31;4967364;28;20113;-40
2022/02/25 05:11:06;;;;;;;2.53;0.85;;;;;;;18.96;42.76;100698.22;4967920;28;20038;-42
2022/02/25 05:13:31;;;;;;;1.73;0.70;;;;;;;18.97;42.61;100694.56;4967402;28;20501;-42
2022/02/25 05:21:25;;;;;;;4.82;1.55;;;;;;;19.04;42.78;100682.22;4967836;28;20088;-47
2022/02/25 05:23:51;;;;;;;19.90;1.35;;;;;;;19.17;44.02;100684.94;4967403;28;20031;-44
2022/02/25 05:26:16;;;;;;;6.72;1.20;;;;;;;19.31;44.26;100676.09;4967894;28;20027;-41
2022/02/25 05:28:42;;;;;;;9.00;1.42;;;;;;;19.49;44.15;100686.09;4967478;28;20066;-45
2022/02/25 05:31:08;;;;;;;7.68;1.75;;;;;;;19.62;44.80;100686.19;4967455;28;20041;-41
2022/02/25 05:33:34;;;;;;;3.65;0.93;;;;;;;19.77;44.32;100683.41;4967732;28;20026;-43
2022/02/25 05:36:00;;;;;;;5.68;1.00;;;;;;;19.82;43.51;100692.38;4967285;28;20270;-47
2022/02/25 05:38:25;;;;;;;4.95;1.13;;;;;;;19.83;43.91;100698.47;4967525;28;20404;-41
2022/02/25 05:40:51;;;;;;;7.55;1.10;;;;;;;19.84;43.80;100700.91;4967103;28;20263;-46
2022/02/25 05:43:17;;;;;;;2.72;1.20;;;;;;;19.87;43.64;100702.31;4967472;28;20042;-41
2022/02/25 05:45:43;;;;;;;6.53;1.30;;;;;;;19.89;43.66;100705.59;4967358;28;20394;-43
2022/02/25 05:48:08;;;;;;;4.72;0.90;;;;;;;19.90;43.39;100704.56;4967728;28;20053;-44
2022/02/25 05:50:34;;;;;;;6.43;0.90;;;;;;;19.93;43.44;100712.09;4967211;28;20182;-49
2022/02/25 05:53:00;;;;;;;5.90;1.00;;;;;;;19.93;43.37;100708.66;4967420;28;20398;-43
2022/02/25 05:55:25;;;;;;;2.45;0.73;;;;;;;19.95;43.36;100712.72;4963018;28;20446;-47
2022/02/25 05:57:52;;;;;;;6.28;2.08;;;;;;;19.99;43.07;100711.31;4938523;28;20199;-42
2022/02/25 06:00:19;;;;;;;8.65;1.13;;;;;;;20.06;42.75;100712.16;4965925;28;20133;-41
2022/02/25 06:02:46;;;;;;;2.75;0.82;;;;;;;20.12;42.34;100711.34;4967320;28;20066;-40
2022/02/25 06:05:12;;;;;;;2.08;0.80;;;;;;;20.20;42.08;100716.44;4967202;28;20191;-43
2022/02/25 06:07:37;;;;;;;3.45;0.82;;;;;;;20.26;42.38;100719.31;4967052;28;20506;-45
2022/02/25 06:10:04;;;;;;;6.43;1.05;;;;;;;20.32;42.14;100726.44;4963376;28;20022;-46
2022/02/25 06:12:30;;;;;;;3.10;1.13;;;;;;;20.38;42.01;100733.56;4965147;28;20046;-42
2022/02/25 06:14:55;;;;;;;4.93;0.80;;;;;;;20.43;42.27;100729.31;4965898;28;20027;-40
2022/02/25 06:17:21;;;;;;;2.55;0.77;;;;;;;20.45;42.05;100732.56;4964886;28;20026;-40
2022/02/25 06:19:46;;;;;;;7.32;0.80;;;;;;;20.49;42.21;100731.16;4969678;28;20631;-39
2022/02/25 06:22:12;;;;;;;2.00;0.60;;;;;;;20.53;42.44;100734.22;4966853;28;20141;-46
2022/02/25 06:24:37;;;;;;;3.08;0.60;;;;;;;20.56;42.48;100725.88;4968616;28;20141;-45
2022/02/25 06:27:03;;;;;;;3.47;1.02;;;;;;;20.60;42.81;100734.22;4969953;28;20031;-42
2022/02/25 06:29:29;;;;;;;3.63;0.75;;;;;;;20.60;43.01;100731.56;4968048;28;20080;-41
2022/02/25 06:31:54;;;;;;;4.32;0.68;;;;;;;20.56;43.10;100728.50;4970615;28;20034;-39
2022/02/25 06:34:20;;;;;;;2.55;0.60;;;;;;;20.54;43.15;100719.97;4971336;28;20474;-40
2022/02/25 06:36:45;;;;;;;5.55;1.05;;;;;;;20.54;43.06;100730.53;4966083;28;20286;-41
2022/02/25 06:39:11;;;;;;;5.50;0.80;;;;;;;20.51;42.69;100730.94;4963038;28;20058;-43
2022/02/25 06:41:36;;;;;;;2.50;0.75;;;;;;;20.50;43.06;100735.44;4969860;28;20252;-44
2022/02/25 06:44:02;;;;;;;1.40;0.60;;;;;;;20.51;42.92;100738.88;4968471;28;20038;-40
2022/02/25 06:46:28;;;;;;;3.45;0.60;;;;;;;20.51;42.83;100750.28;4969344;28;20053;-41
2022/02/25 06:48:54;;;;;;;5.75;1.17;;;;;;;20.50;43.72;100753.94;4949531;28;20035;-40
2022/02/25 06:51:20;;;;;;;7.00;0.70;;;;;;;20.51;44.01;100768.81;4967509;28;20023;-37
2022/02/25 06:53:45;;;;;;;3.15;1.45;;;;;;;20.47;42.07;100772.88;4969766;28;20594;-37
2022/02/25 06:56:11;;;;;;;2.40;0.77;;;;;;;20.38;40.81;100776.72;4970896;28;20038;-41
2022/02/25 06:58:37;;;;;;;2.83;0.70;;;;;;;20.31;40.32;100783.03;4970800;28;20610;-40
2022/02/25 07:01:04;;;;;;;5.68;1.40;;;;;;;20.28;40.02;100773.66;4951523;28;20030;-41
2022/02/25 07:03:30;;;;;;;6.55;0.98;;;;;;;20.28;39.51;100778.94;4969391;28;20026;-45
2022/02/25 07:05:55;;;;;;;5.82;1.40;;;;;;;20.29;38.83;100791.16;4944867;29;20443;-46
2022/02/25 07:08:21;;;;;;;4.90;1.38;;;;;;;20.28;38.14;100784.25;4932510;28;20046;-42
2022/02/25 07:10:47;;;;;;;5.25;1.00;;;;;;;20.26;37.88;100790.75;4967354;28;20208;-39
2022/02/25 07:13:13;;;;;;;7.00;1.05;;;;;;;20.26;37.52;100799.50;4950649;28;20043;-41
2022/02/25 07:15:42;;;;;;;4.15;1.95;;;;;;;20.25;37.85;100794.41;4958799;28;20170;-41
2022/02/25 07:18:09;;;;;;;4.45;1.10;;;;;;;20.24;37.93;100790.13;4952141;28;20050;-40
2022/02/25 07:20:35;;;;;;;6.22;1.38;;;;;;;20.25;38.13;100789.09;4970044;28;20162;-40
2022/02/25 07:23:01;;;;;;;4.43;0.82;;;;;;;20.23;38.42;100791.97;4971054;28;20027;-41
2022/02/25 07:25:26;;;;;;;3.20;0.80;;;;;;;20.21;38.59;100794.78;4968423;28;20390;-39
2022/02/25 07:27:52;;;;;;;4.18;0.98;;;;;;;20.20;38.82;100793.16;4949953;28;20117;-43
2022/02/25 07:30:18;;;;;;;2.70;0.85;;;;;;;20.19;38.86;100796.00;4969182;28;20118;-40
2022/02/25 07:32:43;;;;;;;4.45;0.60;;;;;;;20.16;39.33;100797.22;4970501;28;20455;-41
2022/02/25 07:35:14;;;;;;;1.10;0.60;;;;;;;20.14;39.56;100793.97;4965751;28;20045;-39
2022/02/25 07:37:40;;;;;;;4.97;0.70;;;;;;;20.13;39.71;100797.63;4965740;28;20111;-41
2022/02/25 07:40:07;;;;;;;1.20;0.60;;;;;;;20.12;39.88;100800.47;4967499;28;20041;-40
2022/02/25 07:44:10;;;;;;;;;;;;;;;19.99;39.97;100795.94;5061167;22;20239;-61
2022/02/25 07:46:35;;;;;;;;;;;;;;;19.93;40.32;100801.19;5042051;28;19921;-61
2022/02/25 07:49:01;;;;;;;1.30;0.50;;;;;;;19.96;40.39;100795.50;5042447;28;19920;-61
2022/02/25 07:51:27;;;;;;;3.58;0.77;;;;;;;19.97;40.26;100797.97;5043865;28;20030;-61
2022/02/25 07:53:54;;;;;;;1.75;0.65;;;;;;;19.98;40.27;100786.38;5043160;28;20115;-61
2022/02/25 07:56:20;;;;;;;6.72;0.60;;;;;;;19.97;40.58;100797.97;5042951;28;20077;-64
2022/02/25 07:58:45;;;;;;;4.03;0.80;;;;;;;19.98;40.62;100798.78;5034494;28;20358;-63
2022/02/25 08:01:13;;;;;;;3.50;0.85;;;;;;;19.96;40.60;100793.69;5035977;28;20021;-61
2022/02/25 08:03:39;;;;;;;4.40;0.95;;;;;;;19.96;40.81;100791.03;5032492;28;21904;-61
2022/02/25 08:06:05;;;;;;;8.32;0.93;;;;;;;19.98;40.88;100789.00;5043113;28;20070;-61
2022/02/25 08:08:30;;;;;;;3.90;0.70;;;;;;;19.99;41.03;100787.19;5041570;28;20667;-61
2022/02/25 08:10:56;;;;;;;2.05;0.60;;;;;;;19.98;40.97;100786.38;5040173;28;20056;-62
2022/02/25 08:13:21;;;;;;;4.38;0.82;;;;;;;19.99;40.97;100788.00;5039195;28;20025;-61
2022/02/25 08:15:46;;;;;;;4.50;0.80;;;;;;;19.99;41.20;100785.34;5040197;28;20079;-62
2022/02/25 08:18:13;;;;;;;3.70;0.55;;;;;;;19.98;40.91;100777.63;5033764;28;20449;-61
2022/02/25 08:20:39;;;;;;;4.45;0.73;;;;;;;19.99;40.92;100780.06;5041142;28;20029;-63
2022/02/25 08:23:05;;;;;;;3.40;0.80;;;;;;;19.99;40.88;100785.34;5041167;28;20041;-62
2022/02/25 08:25:32;;;;;;;4.72;1.00;;;;;;;19.98;40.27;100788.19;5041920;28;20025;-62
2022/02/25 08:27:57;;;;;;;3.42;0.93;;;;;;;19.97;40.17;100790.03;5041789;28;20064;-61
2022/02/25 08:30:23;;;;;;;3.85;1.13;;;;;;;19.96;39.92;100791.03;5040806;28;20433;-61
2022/02/25 08:32:49;;;;;;;2.67;0.80;;;;;;;19.95;39.78;100791.25;5027383;28;20033;-62
2022/02/25 08:35:18;;;;;;;3.58;0.90;;;;;;;19.94;39.53;100793.06;5022685;28;20036;-62
2022/02/25 08:37:45;;;;;;;4.13;0.90;;;;;;;19.93;39.18;100796.72;5025460;28;20021;-62
2022/02/25 08:40:13;;;;;;;3.47;1.10;;;;;;;19.92;39.07;100805.66;5042090;28;20037;-61
2022/02/25 08:42:39;;;;;;;3.17;1.00;;;;;;;19.92;38.88;100807.50;5039755;28;20057;-61
2022/02/25 08:45:06;;;;;;;2.58;0.65;;;;;;;19.92;38.75;100800.38;5040456;28;20436;-62
2022/02/25 08:47:32;;;;;;;4.20;0.98;;;;;;;19.91;38.85;100808.50;5033997;28;20061;-62
2022/02/25 08:49:57;;;;;;;2.00;0.68;;;;;;;19.91;38.84;100809.31;5041658;28;20515;-62
2022/02/25 08:52:23;;;;;;;2.22;1.17;;;;;;;19.91;38.71;100811.97;5025383;28;20034;-61
2022/02/25 08:54:49;;;;;;;2.15;0.85;;;;;;;19.91;38.75;100813.78;5030502;28;20389;-61
2022/02/25 08:57:15;;;;;;;2.33;0.85;;;;;;;19.89;38.72;100808.69;5026384;28;20033;-61
2022/02/25 08:59:42;;;;;;;1.92;0.70;;;;;;;19.87;38.67;100802.78;5028493;28;20076;-62
2022/02/25 09:02:08;;;;;;;2.55;0.60;;;;;;;19.86;38.79;100801.97;5024491;28;20045;-63
2022/02/25 09:04:33;;;;;;;1.98;0.70;;;;;;;19.86;38.78;100796.69;5023748;28;20381;-65
2022/02/25 09:06:59;;;;;;;2.20;0.50;;;;;;;19.85;38.70;100800.34;5028559;28;20522;-64
2022/02/25 09:09:24;;;;;;;1.42;0.60;;;;;;;19.84;38.92;100797.94;5029013;28;20381;-64
2022/02/25 09:11:49;;;;;;;2.30;0.80;;;;;;;19.85;39.11;100805.63;5028662;28;20500;-64
2022/02/25 09:14:15;;;;;;;5.15;0.50;;;;;;;19.83;38.97;100796.28;5027760;28;20033;-65
2022/02/25 09:16:41;;;;;;;2.00;0.47;;;;;;;19.82;39.37;100795.47;5029112;28;20168;-65
2022/02/25 09:19:07;;;;;;;1.75;0.90;;;;;;;19.81;39.27;100798.31;5028653;28;20485;-65
2022/02/25 09:21:33;;;;;;;1.80;0.50;;;;;;;19.80;39.30;100797.50;5028673;28;20040;-65
2022/02/25 09:23:59;;;;;;;2.75;0.70;;;;;;;19.80;39.52;100804.63;5017284;28;20037;-65
2022/02/25 09:26:24;;;;;;;3.75;0.70;;;;;;;19.80;39.52;100796.69;5008857;28;20072;-64
2022/02/25 09:28:50;;;;;;;1.63;0.60;;;;;;;19.79;39.52;100798.53;5008708;28;20083;-64
2022/02/25 09:31:15;;;;;;;0.95;0.50;;;;;;;19.79;39.71;100795.06;5008667;28;20029;-64
2022/02/25 09:33:42;;;;;;;4.38;0.80;;;;;;;19.79;39.84;100795.06;5015924;28;20394;-64
2022/02/25 09:36:08;;;;;;;3.13;0.60;;;;;;;19.77;39.79;100792.59;5028747;28;20025;-65
2022/02/25 09:38:34;;;;;;;2.28;0.57;;;;;;;19.77;40.01;100792.59;5028315;28;20030;-65
2022/02/25 09:41:01;;;;;;;4.20;1.00;;;;;;;19.78;40.07;100794.25;5028652;28;20459;-64
2022/02/25 09:43:26;;;;;;;1.10;0.50;;;;;;;19.76;40.04;100793.63;5022453;28;20053;-65
2022/02/25 09:45:52;;;;;;;1.42;0.50;;;;;;;19.77;40.21;100799.72;5008778;28;20551;-65
2022/02/25 09:48:18;;;;;;;2.00;0.50;;;;;;;19.75;40.39;100799.91;5008408;28;20362;-65
2022/02/25 09:50:44;;;;;;;1.30;0.70;;;;;;;19.73;40.29;100798.47;5013093;28;20088;-65
2022/02/25 09:53:10;;;;;;;2.45;0.50;;;;;;;19.72;40.63;100788.91;5023332;28;20041;-65
2022/02/25 09:55:36;;;;;;;1.17;0.50;;;;;;;19.72;40.59;100788.91;5025299;28;20104;-65
2022/02/25 09:58:06;;;;;;;1.92;0.40;;;;;;;19.69;40.70;100784.03;5019131;28;20116;-65
2022/02/25 10:00:34;;;;;;;1.15;0.70;;;;;;;19.67;40.92;100778.94;5008845;28;20401;-64
2022/02/25 10:03:02;;;;;;;1.83;0.43;;;;;;;19.65;40.79;100775.66;5018732;28;20113;-62
2022/02/25 10:05:30;;;;;;;2.28;0.73;;;;;;;19.64;40.48;100776.69;5026978;28;20033;-62
2022/02/25 10:08:05;;;;;;;0.95;0.55;;;;;;;19.63;40.56;100782.16;5028169;28;20405;-61
2022/02/25 10:10:40;;;;;;;2.55;0.82;;;;;;;19.60;40.21;100787.84;5027366;28;20072;-61
2022/02/25 10:13:06;;;;;;;2.85;0.77;;;;;;;19.60;40.21;100785.19;5016805;28;20033;-62
2022/02/25 10:15:34;;;;;;;2.35;1.00;;;;;;;19.59;40.10;100776.44;5047497;28;20173;-63
2022/02/25 10:18:02;;;;;;;4.18;1.05;;;;;;;19.57;39.90;100773.19;5047459;28;20029;-63
2022/02/25 10:20:28;;;;;;;3.22;0.90;;;;;;;19.58;39.64;100784.56;5038856;28;20083;-62
2022/02/25 10:22:54;;;;;;;2.78;1.25;;;;;;;19.55;39.67;100778.66;5022319;28;20406;-62
2022/02/25 10:25:21;;;;;;;2.28;0.80;;;;;;;19.54;39.55;100782.31;5008090;28;20036;-63
2022/02/25 10:27:47;;;;;;;2.42;0.77;;;;;;;19.55;39.38;100777.84;5024851;28;20063;-65
2022/02/25 10:30:22;;;;;;;4.85;1.10;;;;;;;19.52;39.40;100773.78;5019848;28;20136;-67
2022/02/25 10:32:49;;;;;;;1.63;1.00;;;;;;;19.52;39.40;100763.19;5007472;28;20030;-64
2022/02/25 10:35:40;;;;;;;2.65;0.90;;;;;;;19.51;39.50;100764.22;5018400;28;20025;-62
2022/02/25 10:38:09;;;;;;;2.42;0.80;;;;;;;19.52;39.62;100762.38;5021457;28;20323;-62
2022/02/25 10:40:46;;;;;;;2.67;1.13;;;;;;;19.51;39.57;100769.50;5013480;28;20075;-62
2022/02/25 10:43:17;;;;;;;4.18;1.45;;;;;;;19.51;39.54;100764.22;5027638;28;20096;-63
2022/02/25 10:45:47;;;;;;;2.40;1.13;;;;;;;19.52;39.70;100757.91;5025972;28;20044;-64
2022/02/25 10:48:15;;;;;;;2.05;0.93;;;;;;;19.52;39.57;100763.19;5013767;28;20037;-63
2022/02/25 10:50:51;;;;;;;2.08;0.90;;;;;;;19.52;39.69;100770.31;5021415;28;20049;-62
2022/02/25 10:53:25;;;;;;;1.83;1.10;;;;;;;19.51;39.69;100772.13;5015703;28;20605;-63
2022/02/25 10:55:51;;;;;;;2.47;1.05;;;;;;;19.51;39.79;100766.84;5025779;28;20063;-61
2022/02/25 10:58:17;;;;;;;2.50;1.00;;;;;;;19.51;39.53;100758.09;5025226;28;20477;-61
2022/02/25 11:00:43;;;;;;;4.88;1.23;;;;;;;19.50;39.63;100751.97;5026935;28;20426;-63
2022/02/25 11:03:17;;;;;;;2.45;1.33;;;;;;;19.49;39.56;100741.59;5029265;28;20136;-63
2022/02/25 11:05:43;;;;;;;3.63;0.90;;;;;;;19.50;39.36;100743.22;5020600;28;20581;-63
2022/02/25 11:08:10;;;;;;;2.45;1.20;;;;;;;19.49;39.57;100747.69;5022850;28;20083;-63
2022/02/25 11:10:36;;;;;;;3.47;1.30;;;;;;;19.48;39.58;100754.00;5021179;28;20116;-63
2022/02/25 11:13:05;;;;;;;3.35;1.15;;;;;;;19.48;39.51;100746.06;5010662;28;20241;-64
2022/02/25 11:15:34;;;;;;;3.25;1.50;;;;;;;19.48;39.57;100747.91;5006129;28;20038;-62
2022/02/25 11:17:59;;;;;;;3.17;1.13;;;;;;;19.47;39.26;100751.53;5018710;28;20061;-61
2022/02/25 11:20:35;;;;;;;3.50;1.85;;;;;;;19.46;39.12;100747.28;5023123;28;20126;-63
2022/02/25 11:23:14;;;;;;;3.17;1.58;;;;;;;19.42;39.14;100738.91;5026026;28;20583;-63
2022/02/25 11:25:42;;;;;;;2.63;1.83;;;;;;;19.42;39.12;100744.22;5027302;28;20044;-62
2022/02/25 11:28:09;;;;;;;4.88;1.85;;;;;;;19.41;38.97;100731.19;5031038;28;20560;-62
2022/02/25 11:30:46;;;;;;;3.72;1.77;;;;;;;19.38;38.69;100729.75;5024866;28;20495;-63
2022/02/25 11:33:30;;;;;;;3.90;2.17;;;;;;;19.34;38.46;100717.97;5028783;28;20040;-63